ADDS METAR Data INFO
IDs: Format: Raw Decoded Include TAF

Data at: 1207 UTC 21 Jun 2018

KSVH 211155Z AUTO 00000KT 10SM CLR 24/21 A2986 RMK AO2 70010 T02410208 10241 20210
KSVH 211135Z AUTO 00000KT 10SM CLR 23/21 A2986 RMK AO2 T02300207
KSVH 211115Z AUTO 26003KT 10SM CLR 22/21 A2986 RMK AO2 T02160205
KSVH 211055Z AUTO 00000KT 10SM CLR 22/20 A2985 RMK AO2 T02170204
KSVH 211035Z AUTO 00000KT 10SM CLR 22/20 A2985 RMK AO2 T02190203
KSVH 211015Z AUTO 00000KT 10SM CLR 21/20 A2985 RMK AO2 T02110198
KSVH 210955Z AUTO 00000KT 10SM CLR 22/19 A2984 RMK AO2 T02230192
KSVH 210935Z AUTO 29004KT 10SM CLR 23/19 A2984 RMK AO2 T02320191
KSVH 210915Z AUTO 30004KT 10SM CLR 24/19 A2984 RMK AO2 T02350194
KSVH 210855Z AUTO 31005KT 10SM CLR 23/20 A2984 RMK AO2 T02300196
KSVH 210835Z AUTO 30003KT 10SM CLR 23/21 A2984 RMK AO2 T02300205
KSVH 210815Z AUTO 00000KT 10SM CLR 22/21 A2984 RMK AO2 T02170209
KSVH 210755Z AUTO 00000KT 7SM CLR 21/21 A2984 RMK AO2 T02120207
KSVH 210735Z AUTO 00000KT 10SM CLR 22/21 A2984 RMK AO2 T02200210
KSVH 210715Z AUTO 00000KT 10SM CLR 22/21 A2985 RMK AO2 T02190210
KSVH 210655Z AUTO 33003KT 10SM CLR 23/22 A2985 RMK AO2 T02280215
KSVH 210635Z AUTO 00000KT 10SM CLR 22/21 A2986 RMK AO2 T02180212
KSVH 210615Z AUTO 00000KT 10SM CLR 23/22 A2986 RMK AO2 T02300215
KSVH 210555Z AUTO 26003KT 10SM CLR 22/21 A2987 RMK AO2 T02220214 10298 20218
KSVH 210535Z AUTO 00000KT 10SM CLR 23/22 A2987 RMK AO2 T02290218
KSVH 210515Z AUTO 00000KT 10SM CLR 23/22 A2988 RMK AO2 T02300216
KSVH 210455Z AUTO 26004KT 10SM CLR 23/22 A2988 RMK AO2 T02300216 403400218
KSVH 210435Z AUTO 00000KT 10SM CLR 22/21 A2988 RMK AO2 T02230213
KSVH 210415Z AUTO 00000KT 10SM CLR 23/22 A2989 RMK AO2 T02250216
KSVH 210355Z AUTO 00000KT 10SM CLR 23/22 A2989 RMK AO2 T02300219
KSVH 210335Z AUTO 00000KT 10SM CLR 23/22 A2989 RMK AO2 T02300217
KSVH 210315Z AUTO 00000KT 10SM CLR 24/22 A2989 RMK AO2 T02440216
KSVH 210255Z AUTO 00000KT 10SM CLR 25/22 A2989 RMK AO2 T02500221
KSVH 210235Z AUTO 00000KT 10SM SCT090 SCT120 25/21 A2989 RMK AO2 T02510214
KSVH 210215Z AUTO 00000KT 10SM SCT060 BKN090 BKN120 26/21 A2988 RMK AO2 T02570212
KSVH 210155Z AUTO 00000KT 10SM SCT060 BKN070 OVC100 26/21 A2987 RMK AO2 T02600211
KSVH 210135Z AUTO 33006KT 10SM SCT070 BKN080 BKN090 27/22 A2987 RMK AO2 T02680220
KSVH 210115Z AUTO 00000KT 10SM SCT070 SCT120 27/24 A2985 RMK AO2 T02680240
KSVH 210055Z AUTO 00000KT 10SM CLR 27/24 A2985 RMK AO2 T02690237
KSVH 210035Z AUTO 00000KT 10SM CLR 28/24 A2984 RMK AO2 T02800238
KSVH 210015Z AUTO 00000KT 10SM CLR 29/24 A2984 RMK AO2 T02850242
KSVH 202355Z AUTO 00000KT 10SM SCT100 30/23 A2985 RMK AO2 60010 T02980233 10340 20240
KSVH 202335Z AUTO 00000KT 10SM SCT100 30/23 A2984 RMK AO2 T03040232
KSVH 202315Z AUTO 19004KT 10SM CLR 30/24 A2984 RMK AO2 T03020236
KSVH 202255Z AUTO 00000KT 10SM CLR 30/23 A2984 RMK AO2 T03030226
KSVH 202235Z AUTO 00000KT 10SM CLR 31/22 A2983 RMK AO2 T03140219
KSVH 202215Z AUTO 00000KT 10SM CLR 31/23 A2984 RMK AO2 T03120229
KSVH 202155Z AUTO 00000KT 10SM CLR 31/24 A2984 RMK AO2 T03120244
KSVH 202135Z AUTO 19004KT 10SM CLR 31/23 A2984 RMK AO2 T03080233
KSVH 202115Z AUTO 00000KT 10SM SCT120 30/23 A2984 RMK AO2 T02960233
KSVH 202055Z AUTO 00000KT 10SM SCT110 29/22 A2985 RMK AO2 60010 T02910224
KSVH 202035Z AUTO 00000KT 10SM SCT036 SCT055 SCT080 28/24 A2986 RMK AO2 T02780239
KSVH 202015Z AUTO 16004KT 10SM SCT032 BKN080 OVC090 25/23 A2987 RMK AO2 T02520226
KSVH 201955Z AUTO 21005KT 7SM RA SCT032 BKN048 OVC090 24/22 A2988 RMK AO2 P0010 T02400223
KSVH 201935Z AUTO 24011G16KT 7SM RA SCT060 SCT070 OVC110 30/20 A2989 RMK AO2 P0001 T03000197
KSVH 201915Z AUTO 34006KT 10SM BKN060 OVC110 32/20 A2987 RMK AO2 T03170201
KSVH 201855Z AUTO 35003KT 10SM BKN050 33/21 A2988 RMK AO2 T03300205
KSVH 201835Z AUTO 16003KT 10SM OVC050 33/21 A2989 RMK AO2 T03270209
KSVH 201815Z AUTO 00000KT 10SM OVC050 32/21 A2989 RMK AO2 T03170206
KSVH 201755Z AUTO 00000KT 10SM BKN050 32/20 A2990 RMK AO2 T03170204 10340 20257
KSVH 201735Z AUTO 24006KT 10SM SCT050 33/20 A2991 RMK AO2 T03260201
KSVH 201715Z AUTO 23003KT 10SM SCT048 SCT065 SCT080 34/21 A2991 RMK AO2 T03360212
KSVH 201655Z AUTO 00000KT 10SM SCT046 33/21 A2992 RMK AO2 T03270207
KSVH 201635Z AUTO 33004KT 10SM BKN046 BKN050 32/21 A2992 RMK AO2 T03150210
KSVH 201615Z AUTO 00000KT 10SM SCT044 SCT050 32/21 A2993 RMK AO2 T03160207
KSVH 201555Z AUTO 33003KT 10SM SCT039 33/21 A2993 RMK AO2 T03270214
KSVH 201535Z AUTO 00000KT 10SM SCT039 31/21 A2994 RMK AO2 T03090212
KSVH 201515Z AUTO 00000KT 10SM CLR 31/21 A2994 RMK AO2 T03100210
KSVH 201455Z AUTO 35004KT 10SM CLR 31/21 A2994 RMK AO2 T03050211
KSVH 201435Z AUTO 35003KT 10SM CLR 31/21 A2994 RMK AO2 T03060210
KSVH 201415Z AUTO 00000KT 10SM CLR 31/21 A2994 RMK AO2 T03060211
KSVH 201355Z AUTO 35004KT 10SM CLR 30/21 A2995 RMK AO2 T02980206
KSVH 201335Z AUTO 31003KT 10SM CLR 30/22 A2995 RMK AO2 T02980218
KSVH 201315Z AUTO 31003KT 10SM CLR 29/21 A2994 RMK AO2 T02900210
KSVH 201255Z AUTO 00000KT 10SM CLR 28/21 A2994 RMK AO2 T02830210
KSVH 201235Z AUTO 00000KT 10SM CLR 28/22 A2994 RMK AO2 T02780215
KSVH 201215Z AUTO 00000KT 10SM CLR 27/22 A2994 RMK AO2 T02680216
KSVH 201155Z AUTO 00000KT 10SM CLR 26/22 A2994 RMK AO2 T02560215 10262 20218
KSVH 201135Z AUTO 00000KT 10SM CLR 25/22 A2994 RMK AO2 T02500215
KSVH 201115Z AUTO 00000KT 10SM CLR 24/22 A2994 RMK AO2 T02370217
KSVH 201055Z AUTO 00000KT 7SM CLR 22/21 A2993 RMK AO2 T02210210
KSVH 201035Z AUTO 00000KT 7SM CLR 22/21 A2993 RMK AO2 T02200210
KSVH 201015Z AUTO 00000KT 7SM CLR 22/21 A2992 RMK AO2 T02200210
KSVH 200955Z AUTO 00000KT 10SM CLR 22/21 A2992 RMK AO2 T02200209
KSVH 200935Z AUTO 00000KT 10SM CLR 22/21 A2992 RMK AO2 T02210210
KSVH 200915Z AUTO 00000KT 10SM CLR 23/21 A2992 RMK AO2 T02250211
KSVH 200855Z AUTO 00000KT 10SM CLR 23/21 A2992 RMK AO2 T02250213
KSVH 200835Z AUTO 00000KT 10SM CLR 23/22 A2992 RMK AO2 T02320215
KSVH 200815Z AUTO 00000KT 10SM SCT120 24/22 A2992 RMK AO2 T02350215
KSVH 200755Z AUTO 00000KT 10SM SCT120 25/22 A2992 RMK AO2 T02480216
KSVH 200735Z AUTO 00000KT 10SM CLR 25/21 A2993 RMK AO2 T02460214
KSVH 200715Z AUTO 00000KT 10SM CLR 25/21 A2992 RMK AO2 T02500209
KSVH 200655Z AUTO 33003KT 10SM CLR 25/21 A2992 RMK AO2 T02540208
KSVH 200635Z AUTO 32003KT 10SM CLR 26/21 A2992 RMK AO2 T02560209
KSVH 200615Z AUTO 31003KT 10SM CLR 26/21 A2992 RMK AO2 T02580210
KSVH 200555Z AUTO 32003KT 10SM CLR 26/21 A2993 RMK AO2 T02610212 10302 20250
KSVH 200535Z AUTO 28003KT 10SM CLR 25/22 A2993 RMK AO2 T02500219
KSVH 200515Z AUTO 28003KT 10SM CLR 25/22 A2993 RMK AO2 T02540220
KSVH 200455Z AUTO 29003KT 10SM CLR 26/22 A2993 RMK AO2 T02560220 403500215
KSVH 200435Z AUTO 27003KT 10SM CLR 26/22 A2993 RMK AO2 T02570220
KSVH 200415Z AUTO 26004KT 10SM CLR 26/22 A2993 RMK AO2 T02580220
KSVH 200355Z AUTO 26003KT 10SM CLR 26/22 A2994 RMK AO2 T02580220
KSVH 200335Z AUTO 25004KT 10SM CLR 26/22 A2994 RMK AO2 T02620220
KSVH 200315Z AUTO 27004KT 10SM CLR 27/22 A2993 RMK AO2 T02680221
KSVH 200255Z AUTO 27005KT 10SM CLR 27/22 A2994 RMK AO2 T02690216
KSVH 200235Z AUTO 27004KT 10SM CLR 27/22 A2994 RMK AO2 T02720216
KSVH 200215Z AUTO 27004KT 10SM CLR 28/22 A2993 RMK AO2 T02790217
KSVH 200155Z AUTO 26003KT 10SM CLR 28/22 A2992 RMK AO2 T02790215
KSVH 200135Z AUTO 26004KT 10SM CLR 28/21 A2992 RMK AO2 T02820212
KSVH 200115Z AUTO 26003KT 10SM CLR 28/21 A2992 RMK AO2 T02830210
KSVH 200055Z AUTO 00000KT 10SM CLR 29/21 A2991 RMK AO2 T02860212
KSVH 200035Z AUTO 26003KT 10SM CLR 29/21 A2991 RMK AO2 T02920210
KSVH 200015Z AUTO 25004KT 10SM CLR 30/21 A2991 RMK AO2 T02980209